Berea, Ohio
Current Conditions -  °F | °C
As of 10:51 AM on Monday 22 Dec 2014 (Local Time) from KCLE Reporting Station
Few Clouds Few Clouds  
Wind Chill: 29°   Ceiling: Unl
Heat Index: 34°   Visibility: 8mi
Dew Point: 26°   Wind: 6mph
Humidity: 73%   Direction: 150°SSE
Pressure: 30.1"   Gusts: NA
Location:  41.37°N, 81.85°W
Report Text: KCLE 221551Z 15005KT 8SM FEW250 01/M03 A3010 RMK AO2 SLP202 T00111033
Loading
Personal Weather Stations






























Interactive Weather Map New forecast layout! Learn more

10-Day Weather Forecast

Advertisements
Track Severe Weather on mobile